Airfield :







YOU CAN JOIN US ON...

 
LOGIN :

Register | Disclaimer

   EN    FR    IT 

 









Legend :    VFR   Marginal VFR   IFR   Intensive IFR   Very Intensive IFR
Visi :
Ceiling :
>= 8 km
>= 3000ft
5 to 8 km
1000 to 3000 ft
1500m to 5 km
500 to 1000 ft
800 to 1500m
200 to 500 ft
< 800m
< 200 ft
Symbols :   Thunderstorms  Fog  Heavy snow  Heavy precipitations  Wind > 20 kt






- Airport Elevation : 76 ft
- IATA code : EGS


BIEG - Egilsstaðir

CURRENT METAR :
  • 080600Z 31018KT 7000 -SN SCT018 BKN027 OVC073 M01/M03 Q1009

EXPIRED METARs :
  • 080500Z 28010G21KT 9999 FEW027 SCT039 BKN080 M01/M05 Q1009
  • 080400Z 20013KT 9999 SCT034 BKN079 M01/M06 Q1008

TAF TAF BIEG
Valid from the 08 at 06:00 until the 09 at 06:00 UTC


080407Z 0806/0906 32015KT 9999 SCT020 BKN030 TX00/0810Z TNM06/0903Z
TEMPO 0806/0811 3000 SHSN BKN015
BECMG 0817/0819 CAVOK
BECMG 0900/0903 19010KT



MET'MAP, your aeronautical weather chart ! - Copyright ORBIFLY December 2007 - Disclaimer

ORBIFLY MET'MAP TEAM :

Programming & Development : Alexandra Zaïnal
Concept & original design : Baudouin d'Aumeries
Assistance for programming : Marc-Olivier Méhu
Technical & hardware support : Manuel Goepfert

Contact : metmap@orbifly.com




SOURCES & CREDITS :

   NOAA